createdAt,value
2023-02-21T00:00:17.783Z,7.86
2023-02-21T00:01:17.140Z,7.85
2023-02-21T00:02:17.392Z,7.84
2023-02-21T00:03:18.929Z,7.82
2023-02-21T00:04:18.040Z,7.76
2023-02-21T00:05:17.447Z,7.77
2023-02-21T00:06:18.678Z,7.73
2023-02-21T00:07:18.962Z,7.71
2023-02-21T00:08:17.246Z,7.71
2023-02-21T00:09:18.589Z,7.69
2023-02-21T00:10:18.836Z,7.66
2023-02-21T00:11:17.216Z,7.66
2023-02-21T00:12:18.455Z,7.67
2023-02-21T00:13:17.025Z,7.66
2023-02-21T00:14:18.276Z,7.67
2023-02-21T00:15:18.182Z,7.63
2023-02-21T00:16:16.931Z,7.63
2023-02-21T00:17:19.261Z,7.66
2023-02-21T00:18:17.468Z,7.62
2023-02-21T00:19:18.765Z,7.62
2023-02-21T00:20:18.680Z,7.62
2023-02-21T00:21:19.321Z,7.60
2023-02-21T00:22:17.678Z,7.58
2023-02-21T00:23:17.857Z,7.60
2023-02-21T00:24:18.259Z,7.57
2023-02-21T00:25:17.536Z,7.62
2023-02-21T00:26:17.752Z,7.57
2023-02-21T00:27:17.748Z,7.55
2023-02-21T00:28:18.356Z,7.63
2023-02-21T00:29:17.707Z,7.57
2023-02-21T00:30:17.991Z,7.55
2023-02-21T00:31:18.291Z,7.57
2023-02-21T00:32:18.605Z,7.58
2023-02-21T00:33:17.891Z,7.62
2023-02-21T00:34:18.156Z,7.60
2023-02-21T00:35:18.460Z,7.55
2023-02-21T00:36:17.685Z,7.55
2023-02-21T00:37:17.988Z,7.57
2023-02-21T00:38:18.339Z,7.57
2023-02-21T00:39:16.595Z,7.57
2023-02-21T00:40:17.863Z,7.57
2023-02-21T00:41:17.358Z,7.60
2023-02-21T00:42:17.518Z,7.58
2023-02-21T00:43:17.734Z,7.62
2023-02-21T00:44:18.508Z,7.67
2023-02-21T00:45:18.362Z,7.63
2023-02-21T00:46:16.725Z,7.62
2023-02-21T00:47:17.942Z,7.63
2023-02-21T00:48:18.257Z,7.66
2023-02-21T00:49:17.554Z,7.66
2023-02-21T00:50:18.306Z,7.67
2023-02-21T00:51:17.447Z,7.67
2023-02-21T00:52:16.522Z,7.66
2023-02-21T00:53:17.763Z,7.66
2023-02-21T00:54:18.066Z,7.63
2023-02-21T00:55:16.377Z,7.62
2023-02-21T00:56:16.900Z,7.58
2023-02-21T00:57:16.963Z,7.58
2023-02-21T00:58:17.287Z,7.74
2023-02-21T00:59:17.515Z,7.58
2023-02-21T01:00:16.901Z,7.60
2023-02-21T01:01:17.527Z,7.62
2023-02-21T01:02:18.481Z,7.62
2023-02-21T01:03:17.685Z,7.60
2023-02-21T01:04:17.094Z,7.62
2023-02-21T01:05:17.268Z,7.58
2023-02-21T01:06:17.617Z,7.60
2023-02-21T01:07:18.384Z,7.52
2023-02-21T01:08:17.110Z,7.55
2023-02-21T01:09:17.499Z,7.55
2023-02-21T01:10:17.871Z,7.55
2023-02-21T01:11:18.122Z,7.54
2023-02-21T01:12:17.440Z,7.54
2023-02-21T01:13:17.673Z,7.52
2023-02-21T01:14:17.052Z,7.54
2023-02-21T01:15:17.257Z,7.55
2023-02-21T01:16:16.697Z,7.55
2023-02-21T01:17:16.949Z,7.57
2023-02-21T01:18:18.223Z,7.55
2023-02-21T01:19:16.487Z,7.55
2023-02-21T01:20:17.758Z,7.57
2023-02-21T01:21:16.221Z,7.52
2023-02-21T01:22:19.463Z,7.52
2023-02-21T01:23:17.632Z,7.51
2023-02-21T01:24:17.963Z,7.51
2023-02-21T01:25:16.237Z,7.50
2023-02-21T01:26:16.523Z,7.50
2023-02-21T01:27:17.818Z,7.54
2023-02-21T01:28:16.159Z,7.55
2023-02-21T01:29:17.430Z,7.57
2023-02-21T01:30:17.747Z,7.55
2023-02-21T01:31:16.505Z,7.58
2023-02-21T01:32:17.259Z,7.66
2023-02-21T01:33:18.228Z,7.63
2023-02-21T01:34:15.933Z,7.66
2023-02-21T01:35:16.254Z,7.63
2023-02-21T01:36:18.598Z,7.60
2023-02-21T01:37:15.868Z,7.62
2023-02-21T01:38:16.175Z,7.60
2023-02-21T01:39:17.897Z,7.60
2023-02-21T01:40:16.760Z,7.60
2023-02-21T01:41:16.370Z,7.58
2023-02-21T01:42:16.397Z,7.58
2023-02-21T01:43:17.623Z,7.57
2023-02-21T01:44:15.948Z,7.57
2023-02-21T01:45:17.188Z,7.57
2023-02-21T01:46:17.470Z,7.58
2023-02-21T01:47:15.762Z,7.62
2023-02-21T01:48:16.091Z,7.66
2023-02-21T01:49:16.447Z,7.70
2023-02-21T01:50:15.658Z,7.67
2023-02-21T01:51:17.187Z,7.66
2023-02-21T01:52:16.239Z,7.66
2023-02-21T01:53:16.548Z,7.66
2023-02-21T01:54:15.802Z,7.67
2023-02-21T01:55:16.097Z,7.66
2023-02-21T01:56:17.350Z,7.69
2023-02-21T01:57:15.698Z,7.67
2023-02-21T01:58:15.994Z,7.67
2023-02-21T01:59:16.279Z,7.63
2023-02-21T02:00:15.592Z,7.63
2023-02-21T02:01:16.152Z,7.62
2023-02-21T02:02:16.147Z,7.60
2023-02-21T02:03:17.275Z,7.63
2023-02-21T02:04:15.640Z,7.63
2023-02-21T02:05:15.967Z,7.67
2023-02-21T02:06:16.198Z,7.69
2023-02-21T02:07:17.532Z,7.70
2023-02-21T02:08:15.736Z,7.70
2023-02-21T02:09:16.042Z,7.73
2023-02-21T02:10:16.326Z,7.73
2023-02-21T02:11:15.823Z,7.74
2023-02-21T02:12:15.837Z,7.74
2023-02-21T02:13:16.171Z,7.77
2023-02-21T02:14:15.441Z,7.76
2023-02-21T02:15:15.719Z,7.77
2023-02-21T02:16:16.052Z,7.81
2023-02-21T02:17:16.652Z,7.82
2023-02-21T02:18:16.544Z,7.85
2023-02-21T02:19:16.680Z,7.81
2023-02-21T02:20:16.203Z,7.86
2023-02-21T02:21:15.759Z,7.86
2023-02-21T02:22:18.768Z,7.84
2023-02-21T02:23:16.023Z,7.82
2023-02-21T02:24:16.342Z,7.85
2023-02-21T02:25:15.663Z,7.84
2023-02-21T02:26:18.952Z,7.85
2023-02-21T02:27:15.167Z,7.85
2023-02-21T02:28:16.452Z,7.84
2023-02-21T02:29:16.730Z,7.86
2023-02-21T02:30:16.137Z,7.91
2023-02-21T02:31:15.741Z,7.92
2023-02-21T02:32:16.656Z,7.96
2023-02-21T02:33:16.953Z,7.95
2023-02-21T02:34:15.262Z,7.96
2023-02-21T02:35:16.530Z,7.99
2023-02-21T02:36:16.913Z,7.95
2023-02-21T02:37:15.178Z,7.95
2023-02-21T02:38:16.412Z,7.89
2023-02-21T02:39:15.753Z,7.88
2023-02-21T02:40:15.008Z,7.84
2023-02-21T02:41:15.640Z,7.81
2023-02-21T02:42:15.714Z,7.77
2023-02-21T02:43:15.887Z,7.74
2023-02-21T02:44:15.157Z,7.74
2023-02-21T02:45:15.434Z,7.73
2023-02-21T02:46:16.758Z,7.71
2023-02-21T02:47:15.062Z,7.73
2023-02-21T02:48:15.290Z,7.74
2023-02-21T02:49:16.492Z,7.74
2023-02-21T02:50:16.756Z,7.74
2023-02-21T02:51:15.399Z,7.76
2023-02-21T02:52:16.284Z,7.77
2023-02-21T02:53:16.196Z,7.81
2023-02-21T02:54:14.940Z,7.81
2023-02-21T02:55:18.259Z,7.82
2023-02-21T02:56:15.524Z,7.82
2023-02-21T02:57:15.736Z,7.82
2023-02-21T02:58:15.158Z,7.82
2023-02-21T02:59:15.503Z,7.82
2023-02-21T03:00:15.738Z,7.84
2023-02-21T03:01:16.133Z,7.81
2023-02-21T03:02:16.156Z,7.77
2023-02-21T03:03:16.428Z,7.77
2023-02-21T03:04:15.671Z,7.76
2023-02-21T03:05:16.020Z,7.74
2023-02-21T03:06:16.261Z,7.73
2023-02-21T03:07:15.633Z,7.73
2023-02-21T03:08:14.823Z,7.74
2023-02-21T03:09:15.240Z,7.74
2023-02-21T03:10:17.573Z,7.73
2023-02-21T03:11:15.069Z,7.74
2023-02-21T03:12:15.047Z,7.70
2023-02-21T03:13:16.305Z,7.70
2023-02-21T03:14:14.596Z,7.71
2023-02-21T03:15:15.895Z,7.70
2023-02-21T03:16:16.662Z,7.70
2023-02-21T03:17:14.470Z,7.70
2023-02-21T03:18:14.789Z,7.69
2023-02-21T03:19:15.111Z,7.70
2023-02-21T03:20:16.381Z,7.69
2023-02-21T03:21:15.002Z,7.67
2023-02-21T03:22:15.033Z,7.66
2023-02-21T03:23:15.414Z,7.67
2023-02-21T03:24:14.585Z,7.66
2023-02-21T03:25:14.903Z,7.71
2023-02-21T03:26:16.129Z,7.69
2023-02-21T03:27:14.466Z,7.69
2023-02-21T03:28:14.802Z,7.70
2023-02-21T03:29:16.087Z,7.69
2023-02-21T03:30:14.407Z,7.67
2023-02-21T03:31:14.978Z,7.67
2023-02-21T03:32:15.011Z,7.62
2023-02-21T03:33:15.287Z,7.60
2023-02-21T03:34:15.537Z,7.60
2023-02-21T03:35:14.897Z,7.62
2023-02-21T03:36:15.228Z,7.62
2023-02-21T03:37:15.473Z,7.63
2023-02-21T03:38:15.040Z,7.62
2023-02-21T03:39:15.206Z,7.63
2023-02-21T03:40:14.648Z,7.66
2023-02-21T03:41:16.266Z,7.66
2023-02-21T03:42:16.233Z,7.66
2023-02-21T03:43:14.482Z,7.66
2023-02-21T03:44:15.916Z,7.66
2023-02-21T03:45:14.146Z,7.63
2023-02-21T03:46:14.482Z,7.63
2023-02-21T03:47:15.727Z,7.66
2023-02-21T03:48:20.192Z,7.62
2023-02-21T03:49:15.442Z,7.66
2023-02-21T03:50:15.640Z,7.67
2023-02-21T03:51:15.514Z,7.70
2023-02-21T03:52:15.372Z,7.71
2023-02-21T03:53:14.603Z,7.73
2023-02-21T03:54:15.968Z,7.74
2023-02-21T03:55:15.576Z,7.74
2023-02-21T03:56:14.529Z,7.73
2023-02-21T03:57:14.852Z,7.74
2023-02-21T03:58:14.114Z,7.77
2023-02-21T03:59:15.534Z,7.79
2023-02-21T04:00:15.751Z,7.77
2023-02-21T04:01:14.424Z,7.76
2023-02-21T04:02:15.289Z,7.74
2023-02-21T04:03:14.660Z,7.73
2023-02-21T04:04:13.982Z,7.71
2023-02-21T04:05:14.291Z,7.71
2023-02-21T04:06:14.669Z,7.70
2023-02-21T04:07:13.879Z,7.69
2023-02-21T04:08:14.189Z,7.63
2023-02-21T04:09:14.521Z,7.66
2023-02-21T04:10:13.808Z,7.66
2023-02-21T04:11:14.269Z,7.63
2023-02-21T04:12:14.467Z,7.57
2023-02-21T04:13:15.694Z,7.55
2023-02-21T04:14:18.098Z,7.57
2023-02-21T04:15:14.334Z,7.55
2023-02-21T04:16:14.680Z,7.57
2023-02-21T04:17:13.907Z,7.54
2023-02-21T04:18:14.770Z,7.60
2023-02-21T04:19:14.552Z,7.60
2023-02-21T04:20:13.800Z,7.62
2023-02-21T04:21:14.374Z,7.66
2023-02-21T04:22:15.371Z,7.67
2023-02-21T04:23:14.021Z,7.67
2023-02-21T04:24:14.383Z,7.70
2023-02-21T04:25:13.612Z,7.73
2023-02-21T04:26:13.919Z,7.76
2023-02-21T04:27:14.233Z,7.74
2023-02-21T04:28:14.549Z,7.74
2023-02-21T04:29:13.815Z,7.73
2023-02-21T04:30:14.313Z,7.73
2023-02-21T04:31:14.894Z,7.74
2023-02-21T04:32:13.824Z,7.76
2023-02-21T04:33:16.050Z,7.77
2023-02-21T04:34:14.330Z,7.82
2023-02-21T04:35:15.613Z,7.84
2023-02-21T04:36:13.875Z,7.86
2023-02-21T04:37:14.183Z,7.88
2023-02-21T04:38:13.558Z,7.89
2023-02-21T04:39:13.751Z,7.85
2023-02-21T04:40:14.395Z,7.84
2023-02-21T04:41:13.699Z,7.81
2023-02-21T04:42:14.809Z,7.77
2023-02-21T04:43:14.013Z,7.77
2023-02-21T04:44:14.409Z,7.77
2023-02-21T04:45:13.574Z,7.76
2023-02-21T04:46:14.005Z,7.74
2023-02-21T04:47:14.213Z,7.73
2023-02-21T04:48:13.515Z,7.70
2023-02-21T04:49:13.823Z,7.66
2023-02-21T04:50:13.344Z,7.69
2023-02-21T04:51:15.315Z,7.69
2023-02-21T04:52:14.185Z,7.70
2023-02-21T04:53:13.214Z,7.74
2023-02-21T04:54:15.612Z,7.76
2023-02-21T04:55:13.856Z,7.74
2023-02-21T04:56:14.164Z,7.77
2023-02-21T04:57:13.422Z,7.79
2023-02-21T04:58:14.110Z,7.81
2023-02-21T04:59:14.057Z,7.84
2023-02-21T05:00:13.351Z,7.82
2023-02-21T05:01:14.138Z,7.86
2023-02-21T05:02:13.968Z,7.84
2023-02-21T05:03:13.239Z,7.84
2023-02-21T05:04:13.684Z,7.81
2023-02-21T05:05:13.915Z,7.79
2023-02-21T05:06:13.167Z,7.81
2023-02-21T05:07:13.399Z,7.81
2023-02-21T05:08:13.703Z,7.81
2023-02-21T05:09:13.997Z,7.82
2023-02-21T05:10:13.268Z,7.81
2023-02-21T05:11:14.981Z,7.79
2023-02-21T05:12:13.882Z,7.76
2023-02-21T05:13:14.199Z,7.76
2023-02-21T05:14:13.455Z,7.74
2023-02-21T05:15:13.785Z,7.73
2023-02-21T05:16:14.094Z,7.74
2023-02-21T05:17:14.267Z,7.73
2023-02-21T05:18:13.637Z,7.76
2023-02-21T05:19:12.889Z,7.77
2023-02-21T05:20:14.153Z,7.77
2023-02-21T05:21:13.997Z,7.82
2023-02-21T05:22:12.797Z,7.81
2023-02-21T05:23:14.152Z,7.81
2023-02-21T05:24:13.475Z,7.79
2023-02-21T05:25:12.733Z,7.79
2023-02-21T05:26:13.053Z,7.77
2023-02-21T05:27:13.432Z,7.81
2023-02-21T05:28:13.702Z,7.81
2023-02-21T05:29:12.988Z,7.82
2023-02-21T05:30:13.362Z,7.82
2023-02-21T05:31:14.011Z,7.79
2023-02-21T05:32:12.964Z,7.77
2023-02-21T05:33:13.455Z,7.77
2023-02-21T05:34:13.557Z,7.73
2023-02-21T05:35:12.852Z,7.71
2023-02-21T05:36:13.143Z,7.69
2023-02-21T05:37:13.442Z,7.70
2023-02-21T05:38:12.730Z,7.69
2023-02-21T05:39:13.052Z,7.69
2023-02-21T05:40:13.299Z,7.66
2023-02-21T05:41:12.893Z,7.63
2023-02-21T05:42:12.912Z,7.62
2023-02-21T05:43:13.134Z,7.58
2023-02-21T05:44:13.467Z,7.57
2023-02-21T05:45:12.722Z,7.55
2023-02-21T05:46:13.027Z,7.55
2023-02-21T05:47:14.221Z,7.57
2023-02-21T05:48:13.652Z,7.57
2023-02-21T05:49:12.843Z,7.58
2023-02-21T05:50:13.148Z,7.57
2023-02-21T05:51:12.734Z,7.57
2023-02-21T05:52:12.738Z,7.58
2023-02-21T05:53:13.040Z,7.55
2023-02-21T05:54:15.831Z,7.52
2023-02-21T05:55:12.629Z,7.52
2023-02-21T05:56:12.971Z,7.52
2023-02-21T05:57:13.305Z,7.51
2023-02-21T05:58:12.591Z,7.50
2023-02-21T05:59:12.903Z,7.47
2023-02-21T06:00:13.345Z,7.45
2023-02-21T06:01:12.735Z,7.45
2023-02-21T06:02:12.812Z,7.45
2023-02-21T06:03:16.257Z,7.45
2023-02-21T06:04:12.421Z,7.45
2023-02-21T06:05:12.708Z,7.44
2023-02-21T06:06:13.024Z,7.44
2023-02-21T06:07:12.258Z,7.44
2023-02-21T06:08:13.973Z,7.47
2023-02-21T06:09:13.912Z,7.42
2023-02-21T06:10:13.144Z,7.41
2023-02-21T06:11:12.984Z,7.39
2023-02-21T06:12:16.068Z,7.47
2023-02-21T06:13:12.163Z,7.42
2023-02-21T06:14:13.492Z,7.42
2023-02-21T06:15:12.822Z,7.41
2023-02-21T06:16:12.213Z,7.42
2023-02-21T06:17:12.562Z,7.42
2023-02-21T06:18:13.301Z,7.41
2023-02-21T06:19:12.088Z,7.39
2023-02-21T06:20:12.428Z,7.36
2023-02-21T06:21:13.024Z,7.42
2023-02-21T06:22:12.032Z,7.41
2023-02-21T06:23:12.382Z,7.44
2023-02-21T06:24:12.790Z,7.47
2023-02-21T06:25:11.989Z,7.48
2023-02-21T06:26:12.351Z,7.48
2023-02-21T06:27:12.636Z,7.50
2023-02-21T06:28:13.024Z,7.47
2023-02-21T06:29:12.265Z,7.45
2023-02-21T06:30:12.669Z,7.45
2023-02-21T06:31:13.101Z,7.44
2023-02-21T06:32:12.210Z,7.44
2023-02-21T06:33:12.596Z,7.42
2023-02-21T06:34:17.120Z,7.42
2023-02-21T06:35:12.081Z,7.42
2023-02-21T06:36:12.441Z,7.42
2023-02-21T06:37:12.714Z,7.44
2023-02-21T06:38:15.937Z,7.44
2023-02-21T06:39:12.337Z,7.42
2023-02-21T06:40:12.639Z,7.44
2023-02-21T06:41:12.177Z,7.42
2023-02-21T06:42:12.913Z,7.45
2023-02-21T06:43:12.559Z,7.47
2023-02-21T06:44:11.820Z,7.45
2023-02-21T06:45:12.150Z,7.47
2023-02-21T06:46:12.481Z,7.47
2023-02-21T06:47:11.743Z,7.51
2023-02-21T06:48:12.205Z,7.51
2023-02-21T06:49:12.400Z,7.51
2023-02-21T06:50:11.693Z,7.57
2023-02-21T06:51:12.041Z,7.58
2023-02-21T06:52:12.359Z,7.62
2023-02-21T06:53:11.640Z,7.69
2023-02-21T06:54:12.154Z,7.70
2023-02-21T06:55:12.361Z,7.70
2023-02-21T06:56:11.651Z,7.71
2023-02-21T06:57:12.007Z,7.74
2023-02-21T06:58:12.331Z,7.73
2023-02-21T06:59:12.606Z,7.76
2023-02-21T07:00:12.031Z,7.81
2023-02-21T07:01:12.560Z,7.84
2023-02-21T07:02:12.626Z,7.85
2023-02-21T07:03:12.997Z,7.89
2023-02-21T07:04:12.391Z,7.86
2023-02-21T07:05:11.647Z,7.85
2023-02-21T07:06:12.409Z,7.81
2023-02-21T07:07:12.427Z,7.82
2023-02-21T07:08:11.606Z,7.79
2023-02-21T07:09:12.328Z,7.76
2023-02-21T07:10:12.419Z,7.77
2023-02-21T07:11:11.584Z,7.77
2023-02-21T07:12:11.914Z,7.74
2023-02-21T07:13:15.329Z,7.74
2023-02-21T07:14:11.525Z,7.71
2023-02-21T07:15:11.914Z,7.74
2023-02-21T07:16:12.229Z,7.74
2023-02-21T07:17:11.514Z,7.77
2023-02-21T07:18:14.943Z,7.77
2023-02-21T07:19:12.133Z,7.77
2023-02-21T07:20:11.437Z,7.74
2023-02-21T07:21:11.717Z,7.74
2023-02-21T07:22:12.066Z,7.73
2023-02-21T07:23:11.378Z,7.69
2023-02-21T07:24:12.163Z,7.67
2023-02-21T07:25:12.983Z,7.66
2023-02-21T07:26:11.321Z,7.69
2023-02-21T07:27:12.549Z,7.67
2023-02-21T07:28:12.396Z,7.67
2023-02-21T07:29:12.259Z,7.82
2023-02-21T07:30:11.737Z,7.73
2023-02-21T07:31:12.251Z,7.73
2023-02-21T07:32:11.390Z,7.76
2023-02-21T07:33:11.649Z,7.77
2023-02-21T07:34:11.973Z,7.82
2023-02-21T07:35:11.266Z,7.85
2023-02-21T07:36:14.058Z,7.84
2023-02-21T07:37:11.922Z,7.85
2023-02-21T07:38:12.187Z,7.84
2023-02-21T07:39:11.572Z,7.86
2023-02-21T07:40:11.909Z,7.88
2023-02-21T07:41:11.165Z,7.89
2023-02-21T07:42:13.390Z,7.91
2023-02-21T07:43:11.894Z,7.91
2023-02-21T07:44:11.214Z,7.91
2023-02-21T07:45:11.599Z,7.94
2023-02-21T07:46:11.905Z,7.94
2023-02-21T07:47:11.242Z,7.95
2023-02-21T07:48:13.504Z,7.95
2023-02-21T07:49:11.844Z,7.95
2023-02-21T07:50:11.163Z,7.99
2023-02-21T07:51:11.621Z,7.96
2023-02-21T07:52:11.860Z,8.00
2023-02-21T07:53:11.366Z,8.04
2023-02-21T07:54:11.586Z,8.04
2023-02-21T07:55:10.838Z,8.07
2023-02-21T07:56:11.088Z,8.06
2023-02-21T07:57:12.020Z,8.04
2023-02-21T07:58:11.767Z,8.07
2023-02-21T07:59:11.013Z,8.07
2023-02-21T08:00:11.322Z,8.10
2023-02-21T08:01:14.010Z,8.06
2023-02-21T08:02:10.893Z,8.06
2023-02-21T08:03:12.186Z,8.04
2023-02-21T08:04:12.533Z,8.04
2023-02-21T08:05:10.831Z,8.04
2023-02-21T08:06:11.192Z,8.06
2023-02-21T08:07:11.503Z,8.07
2023-02-21T08:08:11.803Z,8.10
2023-02-21T08:09:11.125Z,8.12
2023-02-21T08:10:11.577Z,8.13
2023-02-21T08:11:11.693Z,8.17
2023-02-21T08:12:11.184Z,8.17
2023-02-21T08:13:12.897Z,8.17
2023-02-21T08:14:11.685Z,8.17
2023-02-21T08:15:11.990Z,8.14
2023-02-21T08:16:11.429Z,8.20
2023-02-21T08:17:10.680Z,8.28
2023-02-21T08:18:11.499Z,8.22
2023-02-21T08:19:11.299Z,8.25
2023-02-21T08:20:10.562Z,8.25
2023-02-21T08:21:10.913Z,8.28
2023-02-21T08:22:11.197Z,8.29
2023-02-21T08:23:11.433Z,8.36
2023-02-21T08:24:11.165Z,8.37
2023-02-21T08:25:11.068Z,8.40
2023-02-21T08:26:16.585Z,8.43
2023-02-21T08:27:10.706Z,8.40
2023-02-21T08:28:11.314Z,8.42
2023-02-21T08:29:11.860Z,8.45
2023-02-21T08:30:10.700Z,8.47
2023-02-21T08:31:10.986Z,8.49
2023-02-21T08:32:11.271Z,8.50
2023-02-21T08:33:10.597Z,8.47
2023-02-21T08:34:11.042Z,8.45
2023-02-21T08:35:10.291Z,8.43
2023-02-21T08:36:10.598Z,8.45
2023-02-21T08:37:10.951Z,8.46
2023-02-21T08:38:10.187Z,8.47
2023-02-21T08:39:10.496Z,8.52
2023-02-21T08:40:10.933Z,8.52
2023-02-21T08:41:11.131Z,8.57
2023-02-21T08:42:11.451Z,8.60
2023-02-21T08:43:10.838Z,8.64
2023-02-21T08:44:11.178Z,8.65
2023-02-21T08:45:10.367Z,8.67
2023-02-21T08:46:10.748Z,8.71
2023-02-21T08:47:11.058Z,8.73
2023-02-21T08:48:11.242Z,8.73
2023-02-21T08:49:11.661Z,8.76
2023-02-21T08:50:10.935Z,8.78
2023-02-21T08:51:11.228Z,8.71
2023-02-21T08:52:11.649Z,8.78
2023-02-21T08:53:10.955Z,8.79
2023-02-21T08:54:10.164Z,8.80
2023-02-21T08:55:10.705Z,8.82
2023-02-21T08:56:10.849Z,8.83
2023-02-21T08:57:12.119Z,8.85
2023-02-21T08:58:10.275Z,8.86
2023-02-21T08:59:10.712Z,8.85
2023-02-21T09:00:09.868Z,8.85
2023-02-21T09:01:10.258Z,8.85
2023-02-21T09:02:10.600Z,8.88
2023-02-21T09:03:11.046Z,8.93
2023-02-21T09:04:10.123Z,8.96
2023-02-21T09:05:10.514Z,9.00
2023-02-21T09:06:10.833Z,9.03
2023-02-21T09:07:10.158Z,8.97
2023-02-21T09:08:10.570Z,8.94
2023-02-21T09:09:10.785Z,8.91
2023-02-21T09:10:09.972Z,8.91
2023-02-21T09:11:11.342Z,8.94
2023-02-21T09:12:11.625Z,8.98
2023-02-21T09:13:11.974Z,9.03
2023-02-21T09:14:10.304Z,9.08
2023-02-21T09:15:11.292Z,9.12
2023-02-21T09:16:10.954Z,9.15
2023-02-21T09:17:11.194Z,9.19
2023-02-21T09:18:10.498Z,9.20
2023-02-21T09:19:10.795Z,9.24
2023-02-21T09:20:10.201Z,9.26
2023-02-21T09:21:10.435Z,9.24
2023-02-21T09:22:09.691Z,9.24
2023-02-21T09:23:10.035Z,9.24
2023-02-21T09:24:11.335Z,9.27
2023-02-21T09:25:10.582Z,9.27
2023-02-21T09:26:09.897Z,9.27
2023-02-21T09:27:10.611Z,9.26
2023-02-21T09:28:10.506Z,9.27
2023-02-21T09:29:09.861Z,9.26
2023-02-21T09:30:10.173Z,9.24
2023-02-21T09:31:10.406Z,9.24
2023-02-21T09:32:10.717Z,9.26
2023-02-21T09:33:10.032Z,9.31
2023-02-21T09:34:11.241Z,9.30
2023-02-21T09:35:09.595Z,9.30
2023-02-21T09:36:10.858Z,9.35
2023-02-21T09:37:10.204Z,9.37
2023-02-21T09:38:09.500Z,9.37
2023-02-21T09:39:09.832Z,9.42
2023-02-21T09:40:10.187Z,9.38
2023-02-21T09:41:09.418Z,9.38
2023-02-21T09:42:09.858Z,9.44
2023-02-21T09:43:10.109Z,9.50
2023-02-21T09:44:10.397Z,9.48
2023-02-21T09:45:09.632Z,9.50
2023-02-21T09:46:10.107Z,9.56
2023-02-21T09:47:10.240Z,9.58
2023-02-21T09:48:09.538Z,9.68
2023-02-21T09:49:09.858Z,9.77
2023-02-21T09:50:12.297Z,9.74
2023-02-21T09:51:09.353Z,9.80
2023-02-21T09:52:09.667Z,9.89
2023-02-21T09:53:09.967Z,9.86
2023-02-21T09:54:09.237Z,9.91
2023-02-21T09:55:09.515Z,9.96
2023-02-21T09:56:09.866Z,10.02
2023-02-21T09:57:10.162Z,9.99
2023-02-21T09:58:09.341Z,10.07
2023-02-21T09:59:09.670Z,10.09
2023-02-21T10:00:10.000Z,10.09
2023-02-21T10:01:12.815Z,10.07
2023-02-21T10:02:10.634Z,10.06
2023-02-21T10:03:10.853Z,10.10
2023-02-21T10:04:09.085Z,10.13
2023-02-21T10:05:09.390Z,10.10
2023-02-21T10:06:10.593Z,10.14
2023-02-21T10:07:09.951Z,10.17
2023-02-21T10:08:09.318Z,10.20
2023-02-21T10:09:09.513Z,10.20
2023-02-21T10:10:09.789Z,10.26
2023-02-21T10:11:10.134Z,10.29
2023-02-21T10:12:10.253Z,10.35
2023-02-21T10:13:09.658Z,10.42
2023-02-21T10:14:09.887Z,10.46
2023-02-21T10:15:10.205Z,10.46
2023-02-21T10:16:09.718Z,10.43
2023-02-21T10:17:09.718Z,10.42
2023-02-21T10:18:09.933Z,10.47
2023-02-21T10:19:09.462Z,10.49
2023-02-21T10:20:09.561Z,10.51
2023-02-21T10:21:10.818Z,10.54
2023-02-21T10:22:09.099Z,10.58
2023-02-21T10:23:09.436Z,10.68
2023-02-21T10:24:09.837Z,10.73
2023-02-21T10:25:09.898Z,10.80
2023-02-21T10:26:09.268Z,10.87
2023-02-21T10:27:10.517Z,10.90
2023-02-21T10:28:08.787Z,10.98
2023-02-21T10:29:10.288Z,11.01
2023-02-21T10:30:09.515Z,11.01
2023-02-21T10:31:08.744Z,11.05
2023-02-21T10:32:09.052Z,11.08
2023-02-21T10:33:10.249Z,11.11
2023-02-21T10:34:10.524Z,11.11
2023-02-21T10:35:08.846Z,11.16
2023-02-21T10:36:09.308Z,11.17
2023-02-21T10:37:09.400Z,11.24
2023-02-21T10:38:08.644Z,11.31
2023-02-21T10:39:08.960Z,11.41
2023-02-21T10:40:11.092Z,11.49
2023-02-21T10:41:11.698Z,11.56
2023-02-21T10:42:08.816Z,11.62
2023-02-21T10:43:09.118Z,11.66
2023-02-21T10:44:09.417Z,11.72
2023-02-21T10:45:09.656Z,11.70
2023-02-21T10:46:18.880Z,11.64
2023-02-21T10:47:12.444Z,11.67
2023-02-21T10:48:11.682Z,11.70
2023-02-21T10:49:09.911Z,11.64
2023-02-21T10:50:16.451Z,11.66
2023-02-21T10:51:10.461Z,11.64
2023-02-21T10:52:08.741Z,11.66
2023-02-21T10:53:10.015Z,11.67
2023-02-21T10:54:09.256Z,11.74
2023-02-21T10:55:26.356Z,11.79
2023-02-21T10:56:09.791Z,11.88
2023-02-21T10:57:10.255Z,11.96
2023-02-21T10:58:09.349Z,12.01
2023-02-21T10:59:08.577Z,12.01
2023-02-21T11:00:08.860Z,12.18
2023-02-21T11:01:10.163Z,12.25
2023-02-21T11:02:08.452Z,12.33
2023-02-21T11:03:08.632Z,12.40
2023-02-21T11:04:09.858Z,12.49
2023-02-21T11:05:10.149Z,12.52
2023-02-21T11:06:09.392Z,12.61
2023-02-21T11:07:09.613Z,12.69
2023-02-21T11:08:08.965Z,12.76
2023-02-21T11:09:09.138Z,12.84
2023-02-21T11:10:11.588Z,12.87
2023-02-21T11:11:09.707Z,12.88
2023-02-21T11:12:14.273Z,12.91
2023-02-21T11:13:08.190Z,12.96
2023-02-21T11:14:08.528Z,12.98
2023-02-21T11:15:08.704Z,13.01
2023-02-21T11:16:09.080Z,13.04
2023-02-21T11:17:11.582Z,13.07
2023-02-21T11:18:11.616Z,13.10
2023-02-21T11:19:08.758Z,13.14
2023-02-21T11:20:09.026Z,13.21
2023-02-21T11:21:14.922Z,13.27
2023-02-21T11:22:10.502Z,13.29
2023-02-21T11:23:09.782Z,13.35
2023-02-21T11:24:08.024Z,13.38
2023-02-21T11:25:08.320Z,13.39
2023-02-21T11:26:08.513Z,13.38
2023-02-21T11:27:08.756Z,13.39
2023-02-21T11:28:07.950Z,13.39
2023-02-21T11:29:09.215Z,13.39
2023-02-21T11:30:08.553Z,13.46
2023-02-21T11:31:09.753Z,13.35
2023-02-21T11:32:12.053Z,13.48
2023-02-21T11:33:08.088Z,13.48
2023-02-21T11:34:08.335Z,13.53
2023-02-21T11:35:08.567Z,13.55
2023-02-21T11:36:08.832Z,13.62
2023-02-21T11:37:09.006Z,13.68
2023-02-21T11:38:09.185Z,13.76
2023-02-21T11:39:08.425Z,13.80
2023-02-21T11:40:08.758Z,13.86
2023-02-21T11:41:08.957Z,13.88
2023-02-21T11:42:08.046Z,13.90
2023-02-21T11:43:09.302Z,13.94
2023-02-21T11:44:08.517Z,13.96
2023-02-21T11:45:08.723Z,14.06
2023-02-21T11:46:08.955Z,14.11
2023-02-21T11:47:09.253Z,14.17
2023-02-21T11:48:10.434Z,14.17
2023-02-21T11:49:11.607Z,14.13
2023-02-21T11:50:10.883Z,14.12
2023-02-21T11:51:08.993Z,14.13
2023-02-21T11:52:09.249Z,14.17
2023-02-21T11:53:08.465Z,14.17
2023-02-21T11:54:09.552Z,14.19
2023-02-21T11:55:09.793Z,14.21
2023-02-21T11:56:09.082Z,14.30
2023-02-21T11:57:08.265Z,14.36
2023-02-21T11:58:09.655Z,14.41
2023-02-21T11:59:09.780Z,14.49
2023-02-21T12:00:09.557Z,14.57
2023-02-21T12:01:09.190Z,14.61
2023-02-21T12:02:08.420Z,14.54
2023-02-21T12:03:10.580Z,14.46
2023-02-21T12:04:08.903Z,14.45
2023-02-21T12:05:09.049Z,14.42
2023-02-21T12:06:09.299Z,14.39
2023-02-21T12:07:09.489Z,14.41
2023-02-21T12:08:09.797Z,14.39
2023-02-21T12:09:08.909Z,14.44
2023-02-21T12:10:11.259Z,14.56
2023-02-21T12:11:08.312Z,14.60
2023-02-21T12:12:10.609Z,14.63
2023-02-21T12:13:08.797Z,14.63
2023-02-21T12:14:09.059Z,14.69
2023-02-21T12:15:08.208Z,14.67
2023-02-21T12:16:10.536Z,14.60
2023-02-21T12:17:08.673Z,14.45
2023-02-21T12:18:08.923Z,14.27
2023-02-21T12:19:10.212Z,14.20
2023-02-21T12:20:10.473Z,14.24
2023-02-21T12:21:08.619Z,14.34
2023-02-21T12:22:07.890Z,14.46
2023-02-21T12:23:09.088Z,14.54
2023-02-21T12:24:07.247Z,14.63
2023-02-21T12:25:08.552Z,14.74
2023-02-21T12:26:08.779Z,14.82
2023-02-21T12:27:07.969Z,14.87
2023-02-21T12:28:08.215Z,14.95
2023-02-21T12:29:07.358Z,14.98
2023-02-21T12:30:09.725Z,15.09
2023-02-21T12:31:17.644Z,15.19
2023-02-21T12:32:09.205Z,15.25
2023-02-21T12:33:08.308Z,15.28
2023-02-21T12:34:09.472Z,15.28
2023-02-21T12:35:08.741Z,15.37
2023-02-21T12:36:10.958Z,15.38
2023-02-21T12:37:09.102Z,15.41
2023-02-21T12:38:08.396Z,15.38
2023-02-21T12:39:09.552Z,15.40
2023-02-21T12:40:07.807Z,15.41
2023-02-21T12:41:08.994Z,15.40
2023-02-21T12:42:10.279Z,15.40
2023-02-21T12:43:08.534Z,15.44
2023-02-21T12:44:08.712Z,15.48
2023-02-21T12:45:08.838Z,15.51
2023-02-21T12:46:10.191Z,15.58
2023-02-21T12:47:09.393Z,15.66
2023-02-21T12:48:08.523Z,15.71
2023-02-21T12:49:08.888Z,15.73
2023-02-21T12:50:07.939Z,15.77
2023-02-21T12:51:09.104Z,15.78
2023-02-21T12:52:09.354Z,15.73
2023-02-21T12:53:08.645Z,15.64
2023-02-21T12:54:08.750Z,15.56
2023-02-21T12:55:08.078Z,15.48
2023-02-21T12:56:09.204Z,15.43
2023-02-21T12:57:09.429Z,15.46
2023-02-21T12:58:08.735Z,15.48
2023-02-21T12:59:08.868Z,15.58
2023-02-21T13:00:08.263Z,15.68
2023-02-21T13:01:09.417Z,15.78
2023-02-21T13:02:08.635Z,15.92
2023-02-21T13:03:07.855Z,16.04
2023-02-21T13:04:09.038Z,16.06
2023-02-21T13:05:08.233Z,16.06
2023-02-21T13:06:09.402Z,16.10
2023-02-21T13:07:08.643Z,16.10
2023-02-21T13:08:08.862Z,16.07
2023-02-21T13:09:10.032Z,16.01
2023-02-21T13:10:08.273Z,16.07
2023-02-21T13:11:08.593Z,16.11